sensor_id;sensor_type;location;lat;lon;timestamp;P1;durP1;ratioP1;P2;durP2;ratioP2
15192;SDS011;7697;51.630;7.484;2023-03-14T00:02:39;8.10;;;2.95;;
15192;SDS011;7697;51.630;7.484;2023-03-14T00:07:42;9.52;;;3.28;;
15192;SDS011;7697;51.630;7.484;2023-03-14T00:12:43;10.73;;;4.30;;
15192;SDS011;7697;51.630;7.484;2023-03-14T00:17:47;8.07;;;3.40;;
15192;SDS011;7697;51.630;7.484;2023-03-14T00:22:49;5.38;;;2.60;;
15192;SDS011;7697;51.630;7.484;2023-03-14T00:27:51;6.72;;;1.95;;
15192;SDS011;7697;51.630;7.484;2023-03-14T00:32:54;5.13;;;1.73;;
15192;SDS011;7697;51.630;7.484;2023-03-14T00:37:56;6.45;;;2.47;;
15192;SDS011;7697;51.630;7.484;2023-03-14T00:42:57;6.35;;;2.80;;
15192;SDS011;7697;51.630;7.484;2023-03-14T00:48:01;4.65;;;2.08;;
15192;SDS011;7697;51.630;7.484;2023-03-14T00:53:02;5.85;;;2.25;;
15192;SDS011;7697;51.630;7.484;2023-03-14T00:58:04;7.85;;;2.38;;
15192;SDS011;7697;51.630;7.484;2023-03-14T01:03:08;5.38;;;1.80;;
15192;SDS011;7697;51.630;7.484;2023-03-14T01:08:11;5.28;;;1.90;;
15192;SDS011;7697;51.630;7.484;2023-03-14T01:13:13;5.93;;;1.80;;
15192;SDS011;7697;51.630;7.484;2023-03-14T01:18:17;6.43;;;2.40;;
15192;SDS011;7697;51.630;7.484;2023-03-14T01:23:19;4.50;;;2.08;;
15192;SDS011;7697;51.630;7.484;2023-03-14T01:28:21;4.68;;;2.08;;
15192;SDS011;7697;51.630;7.484;2023-03-14T01:33:24;6.10;;;2.83;;
15192;SDS011;7697;51.630;7.484;2023-03-14T01:38:26;6.50;;;2.83;;
15192;SDS011;7697;51.630;7.484;2023-03-14T01:43:28;6.57;;;2.90;;
15192;SDS011;7697;51.630;7.484;2023-03-14T01:48:32;4.32;;;2.42;;
15192;SDS011;7697;51.630;7.484;2023-03-14T01:53:38;6.28;;;2.97;;
15192;SDS011;7697;51.630;7.484;2023-03-14T01:58:44;5.50;;;2.63;;
15192;SDS011;7697;51.630;7.484;2023-03-14T02:03:52;6.40;;;2.58;;
15192;SDS011;7697;51.630;7.484;2023-03-14T02:08:56;8.85;;;3.75;;
15192;SDS011;7697;51.630;7.484;2023-03-14T02:13:57;7.70;;;2.90;;
15192;SDS011;7697;51.630;7.484;2023-03-14T02:19:02;7.28;;;3.08;;
15192;SDS011;7697;51.630;7.484;2023-03-14T02:24:06;9.07;;;3.45;;
15192;SDS011;7697;51.630;7.484;2023-03-14T02:29:17;7.45;;;3.13;;
15192;SDS011;7697;51.630;7.484;2023-03-14T02:34:19;7.47;;;3.08;;
15192;SDS011;7697;51.630;7.484;2023-03-14T02:39:22;9.98;;;3.70;;
15192;SDS011;7697;51.630;7.484;2023-03-14T02:44:30;9.95;;;3.72;;
15192;SDS011;7697;51.630;7.484;2023-03-14T02:49:32;6.93;;;2.72;;
15192;SDS011;7697;51.630;7.484;2023-03-14T02:54:35;4.90;;;2.38;;
15192;SDS011;7697;51.630;7.484;2023-03-14T02:59:38;4.65;;;1.98;;
15192;SDS011;7697;51.630;7.484;2023-03-14T03:04:40;5.80;;;1.70;;
15192;SDS011;7697;51.630;7.484;2023-03-14T03:09:41;8.52;;;2.30;;
15192;SDS011;7697;51.630;7.484;2023-03-14T03:14:44;6.90;;;2.60;;
15192;SDS011;7697;51.630;7.484;2023-03-14T03:19:46;7.80;;;3.20;;
15192;SDS011;7697;51.630;7.484;2023-03-14T03:24:48;7.28;;;3.35;;
15192;SDS011;7697;51.630;7.484;2023-03-14T03:29:51;9.50;;;3.40;;
15192;SDS011;7697;51.630;7.484;2023-03-14T03:34:53;8.05;;;2.70;;
15192;SDS011;7697;51.630;7.484;2023-03-14T03:39:55;8.05;;;2.88;;
15192;SDS011;7697;51.630;7.484;2023-03-14T03:44:58;8.43;;;3.50;;
15192;SDS011;7697;51.630;7.484;2023-03-14T03:50:00;5.80;;;2.40;;
15192;SDS011;7697;51.630;7.484;2023-03-14T03:55:02;7.70;;;2.75;;
15192;SDS011;7697;51.630;7.484;2023-03-14T04:00:06;6.28;;;2.40;;
15192;SDS011;7697;51.630;7.484;2023-03-14T04:05:12;6.55;;;3.00;;
15192;SDS011;7697;51.630;7.484;2023-03-14T04:10:14;7.53;;;3.33;;
15192;SDS011;7697;51.630;7.484;2023-03-14T04:15:17;7.70;;;3.50;;
15192;SDS011;7697;51.630;7.484;2023-03-14T04:20:19;4.97;;;3.25;;
15192;SDS011;7697;51.630;7.484;2023-03-14T04:25:21;5.82;;;1.95;;
15192;SDS011;7697;51.630;7.484;2023-03-14T04:30:25;6.47;;;2.90;;
15192;SDS011;7697;51.630;7.484;2023-03-14T04:35:26;5.00;;;2.35;;
15192;SDS011;7697;51.630;7.484;2023-03-14T04:40:28;6.13;;;3.20;;
15192;SDS011;7697;51.630;7.484;2023-03-14T04:45:31;3.78;;;1.98;;
15192;SDS011;7697;51.630;7.484;2023-03-14T04:50:33;4.40;;;2.35;;
15192;SDS011;7697;51.630;7.484;2023-03-14T04:55:35;3.78;;;2.15;;
15192;SDS011;7697;51.630;7.484;2023-03-14T05:00:38;3.08;;;1.20;;
15192;SDS011;7697;51.630;7.484;2023-03-14T05:05:40;4.90;;;1.35;;
15192;SDS011;7697;51.630;7.484;2023-03-14T05:10:42;3.28;;;1.10;;
15192;SDS011;7697;51.630;7.484;2023-03-14T05:15:45;2.80;;;0.90;;
15192;SDS011;7697;51.630;7.484;2023-03-14T05:20:46;4.00;;;1.00;;
15192;SDS011;7697;51.630;7.484;2023-03-14T05:25:52;2.25;;;1.27;;
15192;SDS011;7697;51.630;7.484;2023-03-14T05:30:56;2.95;;;0.90;;
15192;SDS011;7697;51.630;7.484;2023-03-14T05:35:58;3.05;;;0.70;;
15192;SDS011;7697;51.630;7.484;2023-03-14T05:40:59;3.92;;;1.30;;
15192;SDS011;7697;51.630;7.484;2023-03-14T05:46:03;2.00;;;1.00;;
15192;SDS011;7697;51.630;7.484;2023-03-14T05:51:05;2.58;;;1.10;;
15192;SDS011;7697;51.630;7.484;2023-03-14T05:56:07;4.40;;;1.20;;
15192;SDS011;7697;51.630;7.484;2023-03-14T06:01:11;4.57;;;1.27;;
15192;SDS011;7697;51.630;7.484;2023-03-14T06:06:12;1.23;;;1.10;;
15192;SDS011;7697;51.630;7.484;2023-03-14T06:11:14;2.47;;;1.98;;
15192;SDS011;7697;51.630;7.484;2023-03-14T06:16:17;1.88;;;1.23;;
15192;SDS011;7697;51.630;7.484;2023-03-14T06:21:19;2.25;;;1.50;;
15192;SDS011;7697;51.630;7.484;2023-03-14T06:26:21;2.70;;;1.77;;
15192;SDS011;7697;51.630;7.484;2023-03-14T06:31:24;2.97;;;1.75;;
15192;SDS011;7697;51.630;7.484;2023-03-14T06:36:26;5.32;;;3.10;;
15192;SDS011;7697;51.630;7.484;2023-03-14T06:41:28;4.32;;;2.95;;
15192;SDS011;7697;51.630;7.484;2023-03-14T06:46:31;4.93;;;3.47;;
15192;SDS011;7697;51.630;7.484;2023-03-14T06:51:33;6.38;;;4.07;;
15192;SDS011;7697;51.630;7.484;2023-03-14T06:56:35;5.07;;;3.47;;
15192;SDS011;7697;51.630;7.484;2023-03-14T07:01:38;5.25;;;3.80;;
15192;SDS011;7697;51.630;7.484;2023-03-14T07:06:40;5.97;;;4.40;;
15192;SDS011;7697;51.630;7.484;2023-03-14T07:11:44;6.32;;;3.50;;
15192;SDS011;7697;51.630;7.484;2023-03-14T07:16:47;4.03;;;2.38;;
15192;SDS011;7697;51.630;7.484;2023-03-14T07:21:49;3.75;;;2.15;;
15192;SDS011;7697;51.630;7.484;2023-03-14T07:26:51;7.68;;;3.95;;
15192;SDS011;7697;51.630;7.484;2023-03-14T07:31:55;9.35;;;4.68;;
15192;SDS011;7697;51.630;7.484;2023-03-14T07:36:56;7.57;;;4.28;;
15192;SDS011;7697;51.630;7.484;2023-03-14T07:41:58;9.60;;;4.88;;
15192;SDS011;7697;51.630;7.484;2023-03-14T07:47:01;6.72;;;3.47;;
15192;SDS011;7697;51.630;7.484;2023-03-14T07:52:03;4.93;;;2.25;;
15192;SDS011;7697;51.630;7.484;2023-03-14T07:57:05;6.03;;;2.10;;
15192;SDS011;7697;51.630;7.484;2023-03-14T08:02:09;3.97;;;2.17;;
15192;SDS011;7697;51.630;7.484;2023-03-14T08:07:12;3.55;;;2.20;;
15192;SDS011;7697;51.630;7.484;2023-03-14T08:12:13;2.53;;;1.77;;
15192;SDS011;7697;51.630;7.484;2023-03-14T08:17:17;2.00;;;1.50;;
15192;SDS011;7697;51.630;7.484;2023-03-14T08:22:19;3.17;;;2.03;;
15192;SDS011;7697;51.630;7.484;2023-03-14T08:27:20;2.28;;;1.42;;
15192;SDS011;7697;51.630;7.484;2023-03-14T08:32:24;2.10;;;1.38;;
15192;SDS011;7697;51.630;7.484;2023-03-14T08:37:25;2.58;;;2.05;;
15192;SDS011;7697;51.630;7.484;2023-03-14T08:42:27;5.20;;;3.03;;
15192;SDS011;7697;51.630;7.484;2023-03-14T08:47:31;3.83;;;1.60;;
15192;SDS011;7697;51.630;7.484;2023-03-14T08:52:33;2.95;;;1.42;;
15192;SDS011;7697;51.630;7.484;2023-03-14T08:57:35;2.10;;;1.60;;
15192;SDS011;7697;51.630;7.484;2023-03-14T09:02:38;3.47;;;1.98;;
15192;SDS011;7697;51.630;7.484;2023-03-14T09:07:40;3.08;;;2.00;;
15192;SDS011;7697;51.630;7.484;2023-03-14T09:12:42;3.67;;;1.80;;
15192;SDS011;7697;51.630;7.484;2023-03-14T09:17:45;2.75;;;1.60;;
15192;SDS011;7697;51.630;7.484;2023-03-14T09:22:47;2.88;;;1.70;;
15192;SDS011;7697;51.630;7.484;2023-03-14T09:27:49;2.88;;;1.60;;
15192;SDS011;7697;51.630;7.484;2023-03-14T09:32:52;4.43;;;1.92;;
15192;SDS011;7697;51.630;7.484;2023-03-14T09:37:54;3.97;;;2.30;;
15192;SDS011;7697;51.630;7.484;2023-03-14T09:42:56;2.83;;;1.40;;
15192;SDS011;7697;51.630;7.484;2023-03-14T09:48:00;2.28;;;1.98;;
15192;SDS011;7697;51.630;7.484;2023-03-14T09:53:04;1.80;;;1.48;;
15192;SDS011;7697;51.630;7.484;2023-03-14T09:58:12;1.20;;;1.10;;
15192;SDS011;7697;51.630;7.484;2023-03-14T10:03:24;0.85;;;0.82;;
15192;SDS011;7697;51.630;7.484;2023-03-14T10:08:28;1.30;;;0.90;;
15192;SDS011;7697;51.630;7.484;2023-03-14T10:13:30;1.00;;;0.90;;
15192;SDS011;7697;51.630;7.484;2023-03-14T10:18:33;1.65;;;0.95;;
15192;SDS011;7697;51.630;7.484;2023-03-14T10:23:35;0.88;;;0.80;;
15192;SDS011;7697;51.630;7.484;2023-03-14T10:28:41;1.00;;;0.80;;
15192;SDS011;7697;51.630;7.484;2023-03-14T10:33:58;0.35;;;0.35;;
15192;SDS011;7697;51.630;7.484;2023-03-14T10:39:15;1.17;;;0.40;;
15192;SDS011;7697;51.630;7.484;2023-03-14T10:44:24;0.68;;;0.65;;
15192;SDS011;7697;51.630;7.484;2023-03-14T10:49:29;1.30;;;0.63;;
15192;SDS011;7697;51.630;7.484;2023-03-14T10:54:33;0.60;;;0.57;;
15192;SDS011;7697;51.630;7.484;2023-03-14T10:59:35;1.63;;;0.55;;
15192;SDS011;7697;51.630;7.484;2023-03-14T11:04:44;0.80;;;0.80;;
15192;SDS011;7697;51.630;7.484;2023-03-14T11:09:58;1.95;;;0.80;;
15192;SDS011;7697;51.630;7.484;2023-03-14T11:15:11;0.63;;;0.55;;
15192;SDS011;7697;51.630;7.484;2023-03-14T11:20:25;0.90;;;0.60;;
15192;SDS011;7697;51.630;7.484;2023-03-14T11:25:36;0.68;;;0.60;;
15192;SDS011;7697;51.630;7.484;2023-03-14T11:30:47;0.88;;;0.52;;
15192;SDS011;7697;51.630;7.484;2023-03-14T11:35:55;2.17;;;0.80;;
15192;SDS011;7697;51.630;7.484;2023-03-14T11:41:03;1.75;;;0.52;;
15192;SDS011;7697;51.630;7.484;2023-03-14T11:46:13;1.05;;;0.50;;
15192;SDS011;7697;51.630;7.484;2023-03-14T11:51:22;0.60;;;0.57;;
15192;SDS011;7697;51.630;7.484;2023-03-14T11:56:27;1.30;;;0.70;;
15192;SDS011;7697;51.630;7.484;2023-03-14T12:01:37;2.45;;;0.82;;
15192;SDS011;7697;51.630;7.484;2023-03-14T12:06:54;3.72;;;1.13;;
15192;SDS011;7697;51.630;7.484;2023-03-14T12:11:58;3.45;;;1.10;;
15192;SDS011;7697;51.630;7.484;2023-03-14T12:17:05;2.00;;;1.10;;
15192;SDS011;7697;51.630;7.484;2023-03-14T12:22:16;1.77;;;0.68;;
15192;SDS011;7697;51.630;7.484;2023-03-14T12:38:49;4.68;;;1.48;;
15192;SDS011;7697;51.630;7.484;2023-03-14T12:49:36;3.97;;;1.48;;
15192;SDS011;7697;51.630;7.484;2023-03-14T12:54:40;4.95;;;1.63;;
15192;SDS011;7697;51.630;7.484;2023-03-14T12:59:50;5.88;;;1.70;;
15192;SDS011;7697;51.630;7.484;2023-03-14T13:04:54;7.00;;;2.10;;
15192;SDS011;7697;51.630;7.484;2023-03-14T13:15:24;8.73;;;2.43;;
15192;SDS011;7697;51.630;7.484;2023-03-14T13:20:30;9.88;;;2.50;;
15192;SDS011;7697;51.630;7.484;2023-03-14T13:25:36;6.25;;;2.13;;
15192;SDS011;7697;51.630;7.484;2023-03-14T13:30:39;9.82;;;2.58;;
15192;SDS011;7697;51.630;7.484;2023-03-14T13:35:43;10.65;;;2.50;;
15192;SDS011;7697;51.630;7.484;2023-03-14T13:40:48;14.07;;;3.72;;
15192;SDS011;7697;51.630;7.484;2023-03-14T13:45:51;12.25;;;2.83;;
15192;SDS011;7697;51.630;7.484;2023-03-14T13:50:55;6.07;;;2.25;;
15192;SDS011;7697;51.630;7.484;2023-03-14T13:56:05;9.25;;;2.60;;
15192;SDS011;7697;51.630;7.484;2023-03-14T14:01:13;12.50;;;2.90;;
15192;SDS011;7697;51.630;7.484;2023-03-14T14:06:19;10.88;;;2.92;;
15192;SDS011;7697;51.630;7.484;2023-03-14T14:11:32;9.48;;;2.53;;
15192;SDS011;7697;51.630;7.484;2023-03-14T14:16:40;10.77;;;2.17;;
15192;SDS011;7697;51.630;7.484;2023-03-14T14:21:44;15.20;;;2.97;;
15192;SDS011;7697;51.630;7.484;2023-03-14T14:26:48;11.85;;;2.50;;
15192;SDS011;7697;51.630;7.484;2023-03-14T14:31:59;9.18;;;2.65;;
15192;SDS011;7697;51.630;7.484;2023-03-14T14:37:02;10.88;;;2.38;;
15192;SDS011;7697;51.630;7.484;2023-03-14T14:42:13;14.23;;;3.30;;
15192;SDS011;7697;51.630;7.484;2023-03-14T14:47:17;6.07;;;2.03;;
15192;SDS011;7697;51.630;7.484;2023-03-14T14:52:21;8.18;;;2.15;;
15192;SDS011;7697;51.630;7.484;2023-03-14T14:57:37;9.30;;;1.92;;
15192;SDS011;7697;51.630;7.484;2023-03-14T15:02:41;6.30;;;1.88;;
15192;SDS011;7697;51.630;7.484;2023-03-14T15:07:46;6.97;;;1.90;;
15192;SDS011;7697;51.630;7.484;2023-03-14T15:12:50;10.65;;;2.08;;
15192;SDS011;7697;51.630;7.484;2023-03-14T15:17:52;7.35;;;1.75;;
15192;SDS011;7697;51.630;7.484;2023-03-14T15:22:54;5.20;;;1.80;;
15192;SDS011;7697;51.630;7.484;2023-03-14T15:27:57;4.00;;;1.90;;
15192;SDS011;7697;51.630;7.484;2023-03-14T15:32:58;5.07;;;1.73;;
15192;SDS011;7697;51.630;7.484;2023-03-14T15:38:00;6.30;;;1.80;;
15192;SDS011;7697;51.630;7.484;2023-03-14T15:43:04;7.07;;;1.80;;
15192;SDS011;7697;51.630;7.484;2023-03-14T15:48:06;5.85;;;1.77;;
15192;SDS011;7697;51.630;7.484;2023-03-14T15:53:08;4.40;;;1.42;;
15192;SDS011;7697;51.630;7.484;2023-03-14T15:58:13;3.63;;;1.40;;
15192;SDS011;7697;51.630;7.484;2023-03-14T16:03:17;5.85;;;1.38;;
15192;SDS011;7697;51.630;7.484;2023-03-14T16:08:19;6.88;;;1.90;;
15192;SDS011;7697;51.630;7.484;2023-03-14T16:13:22;6.38;;;1.60;;
15192;SDS011;7697;51.630;7.484;2023-03-14T16:18:24;4.40;;;1.50;;
15192;SDS011;7697;51.630;7.484;2023-03-14T16:23:28;6.63;;;1.85;;
15192;SDS011;7697;51.630;7.484;2023-03-14T16:28:32;9.65;;;2.05;;
15192;SDS011;7697;51.630;7.484;2023-03-14T16:33:34;4.88;;;1.50;;
15192;SDS011;7697;51.630;7.484;2023-03-14T16:38:37;3.92;;;1.48;;
15192;SDS011;7697;51.630;7.484;2023-03-14T16:43:42;4.50;;;1.40;;
15192;SDS011;7697;51.630;7.484;2023-03-14T16:48:44;5.22;;;2.05;;
15192;SDS011;7697;51.630;7.484;2023-03-14T16:53:46;4.07;;;1.33;;
15192;SDS011;7697;51.630;7.484;2023-03-14T16:58:49;6.38;;;1.65;;
15192;SDS011;7697;51.630;7.484;2023-03-14T17:03:51;4.40;;;1.45;;
15192;SDS011;7697;51.630;7.484;2023-03-14T17:08:53;3.83;;;1.75;;
15192;SDS011;7697;51.630;7.484;2023-03-14T17:13:58;5.43;;;2.00;;
15192;SDS011;7697;51.630;7.484;2023-03-14T17:19:00;4.25;;;1.77;;
15192;SDS011;7697;51.630;7.484;2023-03-14T17:24:02;6.47;;;1.90;;
15192;SDS011;7697;51.630;7.484;2023-03-14T17:29:05;4.45;;;1.63;;
15192;SDS011;7697;51.630;7.484;2023-03-14T17:34:07;4.22;;;1.50;;
15192;SDS011;7697;51.630;7.484;2023-03-14T17:39:10;8.23;;;2.40;;
15192;SDS011;7697;51.630;7.484;2023-03-14T17:44:13;5.47;;;1.57;;
15192;SDS011;7697;51.630;7.484;2023-03-14T17:49:15;5.03;;;1.60;;
15192;SDS011;7697;51.630;7.484;2023-03-14T17:54:17;3.35;;;1.40;;
15192;SDS011;7697;51.630;7.484;2023-03-14T17:59:20;4.93;;;1.60;;
15192;SDS011;7697;51.630;7.484;2023-03-14T18:04:22;7.10;;;2.77;;
15192;SDS011;7697;51.630;7.484;2023-03-14T18:09:23;3.67;;;2.03;;
15192;SDS011;7697;51.630;7.484;2023-03-14T18:14:27;4.57;;;2.42;;
15192;SDS011;7697;51.630;7.484;2023-03-14T18:19:28;5.05;;;1.77;;
15192;SDS011;7697;51.630;7.484;2023-03-14T18:24:31;4.88;;;1.92;;
15192;SDS011;7697;51.630;7.484;2023-03-14T18:29:34;3.90;;;1.90;;
15192;SDS011;7697;51.630;7.484;2023-03-14T18:34:36;5.10;;;1.63;;
15192;SDS011;7697;51.630;7.484;2023-03-14T18:39:38;3.17;;;1.60;;
15192;SDS011;7697;51.630;7.484;2023-03-14T18:44:42;3.87;;;1.70;;
15192;SDS011;7697;51.630;7.484;2023-03-14T18:49:44;4.87;;;2.20;;
15192;SDS011;7697;51.630;7.484;2023-03-14T18:54:46;8.33;;;2.07;;
15192;SDS011;7697;51.630;7.484;2023-03-14T18:59:49;5.03;;;2.20;;
15192;SDS011;7697;51.630;7.484;2023-03-14T19:04:51;4.67;;;2.10;;
15192;SDS011;7697;51.630;7.484;2023-03-14T19:09:54;8.23;;;3.13;;
15192;SDS011;7697;51.630;7.484;2023-03-14T19:14:57;4.17;;;1.90;;
15192;SDS011;7697;51.630;7.484;2023-03-14T19:19:59;4.07;;;1.77;;
15192;SDS011;7697;51.630;7.484;2023-03-14T19:25:01;3.50;;;2.17;;
15192;SDS011;7697;51.630;7.484;2023-03-14T19:30:05;6.10;;;2.50;;
15192;SDS011;7697;51.630;7.484;2023-03-14T19:35:08;5.40;;;2.17;;
15192;SDS011;7697;51.630;7.484;2023-03-14T19:40:10;4.17;;;1.80;;
15192;SDS011;7697;51.630;7.484;2023-03-14T19:45:15;5.28;;;1.67;;
15192;SDS011;7697;51.630;7.484;2023-03-14T19:50:16;5.03;;;1.70;;
15192;SDS011;7697;51.630;7.484;2023-03-14T19:55:19;2.40;;;1.20;;
15192;SDS011;7697;51.630;7.484;2023-03-14T20:00:22;4.27;;;1.70;;
15192;SDS011;7697;51.630;7.484;2023-03-14T20:05:24;3.40;;;1.40;;
15192;SDS011;7697;51.630;7.484;2023-03-14T20:10:28;7.13;;;1.90;;
15192;SDS011;7697;51.630;7.484;2023-03-14T20:15:31;5.13;;;1.90;;
15192;SDS011;7697;51.630;7.484;2023-03-14T20:20:33;4.23;;;1.70;;
15192;SDS011;7697;51.630;7.484;2023-03-14T20:25:35;4.93;;;1.80;;
15192;SDS011;7697;51.630;7.484;2023-03-14T20:30:39;5.40;;;1.97;;
15192;SDS011;7697;51.630;7.484;2023-03-14T20:35:43;4.07;;;1.90;;
15192;SDS011;7697;51.630;7.484;2023-03-14T20:40:45;4.90;;;1.73;;
15192;SDS011;7697;51.630;7.484;2023-03-14T20:45:51;3.03;;;1.67;;
15192;SDS011;7697;51.630;7.484;2023-03-14T20:50:54;3.87;;;1.90;;
15192;SDS011;7697;51.630;7.484;2023-03-14T20:55:56;5.23;;;1.73;;
15192;SDS011;7697;51.630;7.484;2023-03-14T21:00:59;4.57;;;1.60;;
15192;SDS011;7697;51.630;7.484;2023-03-14T21:06:02;2.60;;;1.57;;
15192;SDS011;7697;51.630;7.484;2023-03-14T21:11:06;5.57;;;2.20;;
15192;SDS011;7697;51.630;7.484;2023-03-14T21:16:09;3.53;;;1.90;;
15192;SDS011;7697;51.630;7.484;2023-03-14T21:21:11;5.13;;;2.27;;
15192;SDS011;7697;51.630;7.484;2023-03-14T21:26:13;4.10;;;2.00;;
15192;SDS011;7697;51.630;7.484;2023-03-14T21:31:16;3.70;;;2.00;;
15192;SDS011;7697;51.630;7.484;2023-03-14T21:36:18;4.47;;;1.93;;
15192;SDS011;7697;51.630;7.484;2023-03-14T21:41:20;3.07;;;1.87;;
15192;SDS011;7697;51.630;7.484;2023-03-14T21:46:23;3.17;;;1.53;;
15192;SDS011;7697;51.630;7.484;2023-03-14T21:51:25;3.20;;;1.67;;
15192;SDS011;7697;51.630;7.484;2023-03-14T21:56:29;3.70;;;1.80;;
15192;SDS011;7697;51.630;7.484;2023-03-14T22:01:32;2.80;;;1.40;;
15192;SDS011;7697;51.630;7.484;2023-03-14T22:06:34;5.27;;;2.63;;
15192;SDS011;7697;51.630;7.484;2023-03-14T22:11:36;3.63;;;1.70;;
15192;SDS011;7697;51.630;7.484;2023-03-14T22:16:39;4.57;;;1.73;;
15192;SDS011;7697;51.630;7.484;2023-03-14T22:21:41;6.27;;;2.30;;
15192;SDS011;7697;51.630;7.484;2023-03-14T22:26:43;4.23;;;1.87;;
15192;SDS011;7697;51.630;7.484;2023-03-14T22:31:46;5.77;;;1.90;;
15192;SDS011;7697;51.630;7.484;2023-03-14T22:36:48;5.50;;;2.10;;
15192;SDS011;7697;51.630;7.484;2023-03-14T22:41:50;4.20;;;1.73;;
15192;SDS011;7697;51.630;7.484;2023-03-14T22:46:54;4.93;;;1.90;;
15192;SDS011;7697;51.630;7.484;2023-03-14T22:51:56;3.47;;;1.80;;
15192;SDS011;7697;51.630;7.484;2023-03-14T22:56:58;5.20;;;2.03;;
15192;SDS011;7697;51.630;7.484;2023-03-14T23:02:01;3.87;;;1.93;;
15192;SDS011;7697;51.630;7.484;2023-03-14T23:07:02;7.20;;;2.60;;
15192;SDS011;7697;51.630;7.484;2023-03-14T23:12:05;6.77;;;2.30;;
15192;SDS011;7697;51.630;7.484;2023-03-14T23:17:08;8.50;;;3.10;;
15192;SDS011;7697;51.630;7.484;2023-03-14T23:22:10;9.50;;;2.60;;
15192;SDS011;7697;51.630;7.484;2023-03-14T23:27:13;8.13;;;2.87;;
15192;SDS011;7697;51.630;7.484;2023-03-14T23:32:16;6.93;;;2.30;;
15192;SDS011;7697;51.630;7.484;2023-03-14T23:37:18;8.13;;;2.50;;
15192;SDS011;7697;51.630;7.484;2023-03-14T23:42:22;6.90;;;2.73;;
15192;SDS011;7697;51.630;7.484;2023-03-14T23:47:25;9.13;;;2.77;;
15192;SDS011;7697;51.630;7.484;2023-03-14T23:52:29;10.67;;;3.00;;
15192;SDS011;7697;51.630;7.484;2023-03-14T23:57:31;12.77;;;2.90;;
